Time;durP1;ratioP1;P1;durP2;ratioP2;P2;SDS_P1;SDS_P2;PMS_P1;PMS_P2;Temp;Humidity;BMP_temperature;BMP_pressure;BME280_temperature;BME280_humidity;BME280_pressure;Samples;Min_cycle;Max_cycle;Signal;HPM_P1;HPM_P2
2021/04/02 00:00:23;;;;;;;22.05;19.85;;;;;;;12.62;78.99;100526.75;4996136;28;20030;-77
2021/04/02 00:02:49;;;;;;;20.95;18.67;;;;;;;12.67;78.73;100530.03;4995422;28;20031;-77
2021/04/02 00:05:20;;;;;;;21.80;18.95;;;;;;;12.69;78.50;100526.91;4998278;28;20030;-78
2021/04/02 00:07:46;;;;;;;20.67;18.30;;;;;;;12.68;78.53;100525.28;5000698;28;20493;-78
2021/04/02 00:10:16;;;;;;;22.80;19.33;;;;;;;12.70;78.46;100511.75;4998142;28;20132;-77
2021/04/02 00:12:41;;;;;;;25.17;20.33;;;;;;;12.64;78.34;100510.44;4994777;28;20022;-77
2021/04/02 00:15:19;;;;;;;21.63;18.40;;;;;;;12.69;77.90;100510.97;4994650;28;20172;-77
2021/04/02 00:17:44;;;;;;;19.13;17.15;;;;;;;12.70;78.31;100518.16;4994990;28;20023;-77
2021/04/02 00:20:13;;;;;;;19.52;17.05;;;;;;;12.64;78.41;100510.44;4995075;28;20041;-79
2021/04/02 00:22:40;;;;;;;19.02;17.02;;;;;;;12.68;78.21;100514.94;4996301;28;20030;-77
2021/04/02 00:25:06;;;;;;;20.23;18.25;;;;;;;12.71;77.62;100505.00;4978704;28;20432;-78
2021/04/02 00:27:32;;;;;;;18.15;16.25;;;;;;;12.72;77.38;100503.81;4994925;28;20034;-78
2021/04/02 00:29:57;;;;;;;18.88;16.25;;;;;;;12.76;77.42;100505.50;4995451;28;20030;-78
2021/04/02 00:32:25;;;;;;;20.17;16.83;;;;;;;12.70;77.33;100498.59;4994758;28;20103;-78
2021/04/02 00:34:50;;;;;;;18.55;16.65;;;;;;;12.71;77.76;100485.44;4994879;28;20034;-78
2021/04/02 00:37:16;;;;;;;17.85;15.90;;;;;;;12.71;77.59;100493.81;4994265;28;20057;-77
2021/04/02 00:39:41;;;;;;;17.55;15.68;;;;;;;12.73;77.37;100488.66;4994759;28;20037;-77
2021/04/02 00:42:07;;;;;;;19.23;16.08;;;;;;;12.69;77.93;100488.63;4994579;28;20038;-77
2021/04/02 00:44:33;;;;;;;18.55;16.40;;;;;;;12.67;77.85;100490.97;4994702;28;20081;-78
2021/04/02 00:46:58;;;;;;;18.15;14.80;;;;;;;12.62;77.90;100476.50;4994660;28;20041;-77
2021/04/02 00:49:24;;;;;;;20.83;16.17;;;;;;;12.66;77.66;100488.53;4995856;28;20037;-78
2021/04/02 00:51:49;;;;;;;17.80;15.18;;;;;;;12.65;77.53;100492.50;4994422;28;20030;-78
2021/04/02 00:54:15;;;;;;;17.92;16.17;;;;;;;12.37;78.13;100450.91;4994659;28;20498;-78
2021/04/02 00:56:41;;;;;;;17.70;15.40;;;;;;;12.48;77.72;100480.63;4995293;28;20469;-78
2021/04/02 00:59:09;;;;;;;16.33;14.73;;;;;;;12.42;77.90;100473.75;4995620;28;20030;-78
2021/04/02 01:01:34;;;;;;;16.77;15.13;;;;;;;12.43;78.05;100482.91;4995487;28;20034;-78
2021/04/02 01:04:00;;;;;;;17.85;15.27;;;;;;;12.49;77.88;100478.66;4994423;28;20025;-78
2021/04/02 01:06:27;;;;;;;16.08;14.48;;;;;;;12.49;77.54;100481.44;4994635;28;20026;-78
2021/04/02 01:08:53;;;;;;;16.92;14.10;;;;;;;12.52;77.59;100491.88;4994255;28;20042;-78
2021/04/02 01:11:22;;;;;;;18.52;14.40;;;;;;;12.47;77.31;100481.81;4995163;28;20116;-78
2021/04/02 01:13:48;;;;;;;16.92;14.43;;;;;;;12.45;77.69;100481.38;4994108;28;20030;-78
2021/04/02 01:16:23;;;;;;;15.27;13.75;;;;;;;12.39;77.79;100474.47;4995139;28;20031;-78
2021/04/02 01:19:23;;;;;;;14.10;12.73;;;;;;;12.37;77.89;100479.63;4994141;28;20061;-77
2021/04/02 01:21:56;;;;;;;15.10;13.13;;;;;;;12.34;77.93;100483.13;4995616;28;20026;-77
2021/04/02 01:24:21;;;;;;;17.30;14.82;;;;;;;12.31;78.10;100481.09;4995931;28;20026;-78
2021/04/02 01:27:06;;;;;;;15.18;13.18;;;;;;;12.27;78.01;100474.63;4994210;28;20037;-77
2021/04/02 01:29:37;;;;;;;13.30;11.82;;;;;;;12.21;78.42;100467.72;4994796;28;20574;-78
2021/04/02 01:32:08;;;;;;;15.43;12.98;;;;;;;12.24;78.67;100473.38;4993748;28;20489;-78
2021/04/02 01:34:37;;;;;;;13.60;12.23;;;;;;;12.24;78.39;100470.56;4995429;28;20108;-78
2021/04/02 01:37:13;;;;;;;16.08;13.15;;;;;;;12.27;78.09;100475.44;4995619;28;20104;-77
2021/04/02 01:39:43;;;;;;;14.55;12.07;;;;;;;12.27;78.21;100469.06;4993887;28;20069;-78
2021/04/02 01:42:16;;;;;;;13.90;12.48;;;;;;;12.32;78.12;100477.13;4978251;28;20373;-78
2021/04/02 01:44:42;;;;;;;12.82;11.50;;;;;;;12.22;77.99;100466.56;4995240;28;20113;-77
2021/04/02 01:47:09;;;;;;;14.27;12.32;;;;;;;12.28;78.15;100473.44;4994470;28;20485;-78
2021/04/02 01:49:35;;;;;;;12.50;11.18;;;;;;;12.23;77.93;100471.75;4993851;28;20122;-77
2021/04/02 01:52:01;;;;;;;13.18;11.80;;;;;;;12.22;77.71;100469.34;4994938;28;20494;-78
2021/04/02 01:54:28;;;;;;;13.32;12.02;;;;;;;12.26;78.06;100459.06;4994931;28;20030;-78
2021/04/02 01:56:55;;;;;;;13.15;11.77;;;;;;;12.30;77.15;100465.50;4994121;28;20022;-77
2021/04/02 01:59:22;;;;;;;12.23;11.02;;;;;;;12.26;77.68;100470.22;4993367;28;20037;-77
2021/04/02 02:01:49;;;;;;;12.98;11.38;;;;;;;12.17;77.83;100473.22;4994515;28;20030;-78
2021/04/02 02:04:18;;;;;;;11.93;10.73;;;;;;;12.22;77.21;100469.34;4993113;28;20119;-77
2021/04/02 02:06:46;;;;;;;11.85;10.43;;;;;;;12.17;78.19;100472.41;4993556;28;20117;-77
2021/04/02 02:09:16;;;;;;;12.88;10.57;;;;;;;12.13;77.60;100460.38;4993357;28;20046;-78
2021/04/02 02:11:45;;;;;;;16.08;14.48;;;;;;;12.10;77.53;100458.34;4997463;28;20041;-79
2021/04/02 02:14:17;;;;;;;18.42;16.52;;;;;;;12.15;77.26;100461.63;4998519;28;20112;-79
2021/04/02 02:16:46;;;;;;;15.75;13.40;;;;;;;12.19;76.31;100462.50;4997439;28;20022;-78
2021/04/02 02:19:20;;;;;;;14.98;13.35;;;;;;;12.02;77.35;100454.56;4998362;28;20049;-77
2021/04/02 02:21:47;;;;;;;15.80;13.80;;;;;;;12.12;76.33;100458.75;4997336;28;20470;-78
2021/04/02 02:24:14;;;;;;;14.90;13.38;;;;;;;11.97;76.59;100450.09;4997351;28;20366;-78
2021/04/02 02:26:41;;;;;;;18.00;16.20;;;;;;;11.69;77.23;100414.00;4997637;28;20081;-78
2021/04/02 02:29:08;;;;;;;20.17;18.10;;;;;;;11.83;77.71;100444.22;5001627;28;20434;-78
2021/04/02 02:31:34;;;;;;;21.02;18.75;;;;;;;11.80;77.42;100439.34;5004349;28;20049;-78
2021/04/02 02:34:01;;;;;;;22.77;18.70;;;;;;;11.80;77.41;100433.75;5000561;28;20108;-78
2021/04/02 02:36:28;;;;;;;22.08;19.85;;;;;;;11.72;77.38;100443.97;4997125;28;20548;-78
2021/04/02 02:38:55;;;;;;;20.73;18.55;;;;;;;11.78;77.32;100438.91;4997162;28;20046;-78
2021/04/02 02:41:21;;;;;;;19.92;17.98;;;;;;;11.65;76.77;100434.63;4998470;28;20034;-78
2021/04/02 02:43:52;;;;;;;22.23;19.63;;;;;;;11.69;77.52;100435.50;4998281;28;20030;-78
2021/04/02 02:46:18;;;;;;;23.95;21.65;;;;;;;11.60;77.60;100438.50;4996682;28;20472;-78
2021/04/02 02:48:49;;;;;;;21.23;19.08;;;;;;;11.62;77.22;100440.94;4996947;28;20038;-78
2021/04/02 02:51:16;;;;;;;33.05;29.67;;;;;;;11.57;77.63;100436.44;4996586;28;20022;-78
2021/04/02 02:53:43;;;;;;;32.67;29.48;;;;;;;11.57;77.34;100441.22;4996880;28;20084;-78
2021/04/02 02:56:10;;;;;;;30.10;27.20;;;;;;;11.58;77.60;100440.03;4996680;28;20061;-78
2021/04/02 02:58:39;;;;;;;27.50;24.67;;;;;;;11.54;77.30;100439.94;4996934;28;20030;-78
2021/04/02 03:01:07;;;;;;;32.65;29.30;;;;;;;11.60;77.06;100441.28;4996413;28;20084;-78
2021/04/02 03:03:33;;;;;;;30.00;26.95;;;;;;;11.61;78.10;100439.28;4997183;28;20137;-78
2021/04/02 03:06:01;;;;;;;31.20;27.92;;;;;;;11.56;77.85;100443.19;4996109;28;20034;-78
2021/04/02 03:08:31;;;;;;;32.42;28.92;;;;;;;11.53;78.58;100444.72;4997107;28;20034;-78
2021/04/02 03:10:59;;;;;;;28.90;25.52;;;;;;;11.62;77.98;100444.53;4997126;28;20065;-78
2021/04/02 03:13:25;;;;;;;34.75;31.00;;;;;;;11.52;79.10;100437.53;4996708;28;20030;-77
2021/04/02 03:15:55;;;;;;;59.47;50.30;;;;;;;11.50;79.50;100441.84;4998172;28;20031;-79
2021/04/02 03:18:22;;;;;;;55.75;47.40;;;;;;;11.54;79.35;100446.31;4998009;28;20109;-78
2021/04/02 03:20:49;;;;;;;61.28;51.08;;;;;;;11.55;79.61;100441.56;4997509;28;20034;-78
2021/04/02 03:23:16;;;;;;;53.97;44.67;;;;;;;11.53;79.54;100427.19;4998118;28;20038;-77
2021/04/02 03:25:45;;;;;;;57.75;48.97;;;;;;;11.51;79.33;100430.34;4997539;28;20030;-78
2021/04/02 03:28:12;;;;;;;39.30;35.00;;;;;;;11.61;79.50;100439.28;4996109;28;20022;-77
2021/04/02 03:30:38;;;;;;;38.78;34.08;;;;;;;11.54;79.60;100435.19;4995722;28;20117;-78
2021/04/02 03:33:14;;;;;;;37.15;33.15;;;;;;;11.50;80.50;100434.31;4997397;28;20169;-78
2021/04/02 03:35:41;;;;;;;37.10;32.35;;;;;;;11.58;79.85;100434.47;4995776;28;20098;-79
2021/04/02 03:38:10;;;;;;;45.95;38.33;;;;;;;11.54;80.78;100432.38;4996093;28;20050;-78
2021/04/02 03:40:37;;;;;;;38.20;31.88;;;;;;;11.51;80.85;100435.13;4996793;28;20066;-78
2021/04/02 03:43:04;;;;;;;34.17;30.58;;;;;;;11.47;80.10;100425.84;4997741;28;20096;-78
2021/04/02 03:45:31;;;;;;;36.17;30.08;;;;;;;11.46;80.26;100433.41;4997422;28;20473;-78
2021/04/02 03:48:01;;;;;;;36.20;32.28;;;;;;;11.35;80.75;100407.28;4996406;28;20117;-79
2021/04/02 03:50:33;;;;;;;44.33;36.08;;;;;;;11.55;80.78;100435.97;4995457;28;20027;-78
2021/04/02 03:53:05;;;;;;;42.80;33.33;;;;;;;11.55;80.64;100433.19;4996923;28;20049;-78
2021/04/02 03:55:31;;;;;;;33.50;28.50;;;;;;;11.52;80.64;100437.53;4995400;28;20477;-78
2021/04/02 03:58:00;;;;;;;30.20;27.00;;;;;;;11.52;80.71;100428.38;4995355;28;20085;-78
2021/04/02 04:00:33;;;;;;;34.72;27.77;;;;;;;11.49;80.03;100432.66;4996355;28;20080;-78
2021/04/02 04:03:03;;;;;;;48.70;38.42;;;;;;;11.45;80.34;100437.38;4995675;28;20385;-78
2021/04/02 04:05:29;;;;;;;36.40;30.52;;;;;;;11.53;80.14;100439.13;4995690;28;20061;-79
2021/04/02 04:07:56;;;;;;;38.95;34.13;;;;;;;11.39;80.36;100427.66;4995466;28;20458;-78
2021/04/02 04:10:23;;;;;;;39.60;33.05;;;;;;;11.46;80.14;100422.28;4995935;28;20493;-78
2021/04/02 04:12:53;;;;;;;32.70;27.25;;;;;;;11.40;80.22;100429.28;4995079;28;20080;-78
2021/04/02 04:15:20;;;;;;;24.77;19.80;;;;;;;11.32;80.50;100416.34;4995716;28;20422;-79
2021/04/02 04:17:47;;;;;;;23.23;19.10;;;;;;;11.37;80.35;100435.56;4979175;28;20437;-78
2021/04/02 04:20:16;;;;;;;17.70;15.88;;;;;;;11.37;79.56;100424.44;4996394;28;20026;-79
2021/04/02 04:22:42;;;;;;;18.58;16.48;;;;;;;11.32;80.17;100433.06;4995212;28;20033;-77
2021/04/02 04:25:09;;;;;;;17.35;15.45;;;;;;;11.34;80.16;100439.06;4995660;28;20454;-78
2021/04/02 04:27:38;;;;;;;17.33;14.93;;;;;;;11.32;79.79;100444.22;4995005;28;20034;-79
2021/04/02 04:30:08;;;;;;;18.42;15.30;;;;;;;11.30;79.71;100434.63;4996494;28;20037;-78
2021/04/02 04:32:34;;;;;;;15.77;14.15;;;;;;;11.20;79.71;100439.56;4995825;28;20030;-78
2021/04/02 04:35:01;;;;;;;17.52;15.13;;;;;;;11.22;79.77;100436.41;4995583;28;20469;-78
2021/04/02 04:37:27;;;;;;;19.20;16.23;;;;;;;11.23;79.68;100451.94;4994888;28;20054;-79
2021/04/02 04:39:55;;;;;;;17.10;15.00;;;;;;;11.36;79.10;100449.88;4995169;28;20030;-78
2021/04/02 04:42:23;;;;;;;15.30;13.68;;;;;;;11.31;78.87;100452.94;4995261;28;20030;-78
2021/04/02 04:44:51;;;;;;;18.75;14.57;;;;;;;11.34;79.36;100453.00;4995450;28;20589;-79
2021/04/02 04:47:17;;;;;;;19.30;15.63;;;;;;;11.35;78.74;100445.47;4996104;28;20040;-78
2021/04/02 04:49:44;;;;;;;18.75;15.80;;;;;;;11.34;78.94;100450.22;4994565;28;20109;-78
2021/04/02 04:52:13;;;;;;;23.17;16.58;;;;;;;11.27;78.72;100441.69;4995585;28;20359;-78
2021/04/02 04:54:41;;;;;;;23.73;17.48;;;;;;;11.27;78.85;100436.13;4998878;28;20040;-78
2021/04/02 04:57:08;;;;;;;19.45;17.35;;;;;;;11.35;78.60;100445.47;5001217;28;20027;-79
2021/04/02 04:59:36;;;;;;;21.13;16.55;;;;;;;11.35;78.64;100451.06;4996016;28;20030;-78
2021/04/02 05:02:03;;;;;;;16.77;15.00;;;;;;;11.41;78.23;100449.59;4995021;28;20026;-78
2021/04/02 05:04:30;;;;;;;18.30;14.95;;;;;;;11.50;77.95;100451.03;4994182;28;20032;-78
2021/04/02 05:07:00;;;;;;;20.20;14.05;;;;;;;11.57;77.94;100449.56;4994314;28;20096;-78
2021/04/02 05:09:26;;;;;;;18.17;14.45;;;;;;;11.85;77.23;100439.06;4994720;28;20030;-78
2021/04/02 05:11:54;;;;;;;15.20;13.32;;;;;;;12.20;76.40;100439.03;4994634;28;20038;-77
2021/04/02 05:14:21;;;;;;;15.73;14.13;;;;;;;12.61;74.32;100447.78;4994352;28;20084;-78
2021/04/02 05:16:49;;;;;;;16.13;14.40;;;;;;;12.97;72.66;100445.63;4994696;28;20026;-78
2021/04/02 05:19:18;;;;;;;15.98;14.27;;;;;;;13.39;71.47;100437.19;4995278;28;20101;-78
2021/04/02 05:21:45;;;;;;;14.40;13.05;;;;;;;13.72;69.26;100444.03;4993617;28;20492;-78
2021/04/02 05:24:12;;;;;;;17.55;12.88;;;;;;;14.15;67.96;100439.81;4995249;28;20081;-78
2021/04/02 05:26:38;;;;;;;15.05;13.20;;;;;;;14.57;66.75;100450.75;4995099;28;20026;-77
2021/04/02 05:29:08;;;;;;;18.73;13.57;;;;;;;14.92;65.28;100443.91;4993563;28;20029;-78
2021/04/02 05:31:34;;;;;;;16.23;13.20;;;;;;;15.29;64.34;100445.81;4994238;28;20041;-77
2021/04/02 05:34:00;;;;;;;15.98;14.23;;;;;;;15.62;63.20;100445.66;4994717;28;20034;-78
2021/04/02 05:36:26;;;;;;;17.50;12.80;;;;;;;15.96;61.69;100440.66;4994043;28;20053;-78
2021/04/02 05:38:51;;;;;;;17.42;14.15;;;;;;;16.40;60.44;100441.63;4993966;28;20440;-77
2021/04/02 05:41:24;;;;;;;19.15;16.92;;;;;;;16.83;58.99;100436.16;4994694;28;20041;-78
2021/04/02 05:43:53;;;;;;;50.83;36.33;;;;;;;17.10;57.75;100445.84;4994199;28;20079;-77
2021/04/02 05:46:23;;;;;;;69.13;48.05;;;;;;;17.49;56.45;100445.00;4996867;28;20034;-77
2021/04/02 05:48:58;;;;;;;83.38;59.78;;;;;;;17.91;55.56;100443.34;4997598;28;20105;-78
2021/04/02 05:51:25;;;;;;;85.47;59.30;;;;;;;18.26;54.27;100440.38;4997841;28;20038;-77
2021/04/02 05:53:52;;;;;;;56.72;42.15;;;;;;;18.67;53.45;100442.59;4998453;28;20030;-75
2021/04/02 05:56:18;;;;;;;41.65;33.63;;;;;;;19.03;52.32;100439.56;4996820;28;20040;-76
2021/04/02 05:58:44;;;;;;;43.42;35.60;;;;;;;19.25;51.92;100434.56;4990070;28;20117;-82
2021/04/02 06:01:10;;;;;;;42.85;37.00;;;;;;;19.59;51.00;100437.47;4998244;28;20130;-78
2021/04/02 06:03:36;;;;;;;34.85;28.15;;;;;;;19.99;50.08;100437.88;4980328;28;20105;-75
2021/04/02 06:06:02;;;;;;;23.15;19.23;;;;;;;20.06;49.47;100434.97;4990507;28;20037;-75
2021/04/02 06:08:28;;;;;;;19.17;17.17;;;;;;;20.36;48.68;100437.81;4988382;28;20022;-72
2021/04/02 06:10:54;;;;;;;17.73;14.68;;;;;;;20.54;47.50;100442.44;4980652;28;20389;-75
2021/04/02 06:13:20;;;;;;;13.95;12.48;;;;;;;21.07;46.75;100443.69;4980750;28;20034;-73
2021/04/02 06:15:46;;;;;;;14.77;11.43;;;;;;;20.59;47.12;100439.16;4996391;28;20061;-74
2021/04/02 06:18:13;;;;;;;11.68;9.93;;;;;;;20.36;47.81;100442.66;4980253;28;20030;-75
2021/04/02 06:20:44;;;;;;;11.40;9.93;;;;;;;20.44;47.28;100443.38;4997324;28;20065;-75
2021/04/02 06:23:16;;;;;;;11.48;10.23;;;;;;;20.19;47.43;100441.69;4980221;28;20049;-73
2021/04/02 06:25:58;;;;;;;8.23;7.43;;;;;;;20.10;47.69;100450.66;4997611;28;20030;-72
2021/04/02 06:28:27;;;;;;;8.90;8.00;;;;;;;20.11;47.40;100443.78;4980156;28;20374;-74
2021/04/02 06:31:08;;;;;;;8.68;7.25;;;;;;;20.18;47.92;100448.53;4980355;28;20409;-74
2021/04/02 06:33:42;;;;;;;11.05;8.65;;;;;;;20.29;47.39;100446.38;4979660;28;20543;-74
2021/04/02 06:36:20;;;;;;;13.23;8.77;;;;;;;20.39;46.22;100451.09;4980002;28;20050;-75
2021/04/02 06:38:51;;;;;;;8.55;6.38;;;;;;;20.77;46.32;100444.53;4995820;28;20061;-74
2021/04/02 06:41:18;;;;;;;8.38;6.90;;;;;;;21.34;45.13;100444.47;4979569;28;20066;-76
2021/04/02 06:43:44;;;;;;;10.40;7.28;;;;;;;21.61;44.03;100454.94;4979532;28;20037;-75
2021/04/02 06:46:17;;;;;;;7.95;7.15;;;;;;;21.37;44.37;100443.63;4963295;28;20031;-75
2021/04/02 06:48:43;;;;;;;8.57;7.35;;;;;;;20.83;44.47;100446.47;4979465;28;20030;-75
2021/04/02 06:51:17;;;;;;;8.80;7.57;;;;;;;20.25;46.93;100431.50;4979949;28;20034;-75
2021/04/02 06:53:47;;;;;;;6.72;6.13;;;;;;;20.88;45.09;100431.88;4979279;28;20035;-75
2021/04/02 06:56:15;;;;;;;9.70;6.60;;;;;;;21.27;44.16;100441.75;4981265;28;20038;-74
2021/04/02 06:58:42;;;;;;;8.38;6.30;;;;;;;20.46;45.24;100438.09;4960476;28;20022;-75
2021/04/02 07:01:10;;;;;;;6.63;6.03;;;;;;;20.11;46.82;100440.94;4959870;28;20041;-74
2021/04/02 07:03:36;;;;;;;7.07;6.22;;;;;;;21.01;45.29;100434.09;4989206;28;20372;-75
2021/04/02 07:06:04;;;;;;;7.32;6.45;;;;;;;20.62;46.15;100435.50;4992392;28;20044;-78
2021/04/02 07:08:32;;;;;;;7.72;6.95;;;;;;;20.41;45.99;100447.84;4979094;28;20030;-74
2021/04/02 07:10:59;;;;;;;6.90;6.03;;;;;;;20.74;45.34;100440.56;4995903;28;20035;-75
2021/04/02 07:13:26;;;;;;;7.88;7.05;;;;;;;20.59;45.89;100441.97;4995309;28;20030;-75
2021/04/02 07:15:53;;;;;;;6.70;6.03;;;;;;;19.85;47.34;100445.28;4995821;28;20388;-75
2021/04/02 07:18:18;;;;;;;7.40;5.53;;;;;;;20.00;46.79;100439.47;4996350;28;20365;-74
2021/04/02 07:20:45;;;;;;;5.97;5.38;;;;;;;18.88;48.85;100423.97;4996135;28;20038;-72
2021/04/02 07:23:14;;;;;;;8.05;6.22;;;;;;;19.02;49.71;100447.22;4995398;28;20030;-72
2021/04/02 07:25:43;;;;;;;8.25;6.82;;;;;;;20.14;47.33;100453.44;4995130;28;20078;-72
2021/04/02 07:28:09;;;;;;;6.63;5.40;;;;;;;19.48;48.86;100453.69;4979421;28;20030;-74
2021/04/02 07:30:36;;;;;;;7.28;6.18;;;;;;;19.56;48.42;100452.41;4995677;28;20100;-72
2021/04/02 07:33:07;;;;;;;8.82;6.50;;;;;;;20.03;47.12;100449.94;4979386;28;20595;-75
2021/04/02 07:35:33;;;;;;;8.52;6.85;;;;;;;19.36;48.66;100446.53;4995043;28;20037;-76
2021/04/02 07:37:59;;;;;;;7.35;6.65;;;;;;;19.11;49.36;100446.75;4994822;28;20054;-78
2021/04/02 07:40:28;;;;;;;8.13;7.32;;;;;;;18.96;49.65;100446.06;4980657;28;20125;-72
2021/04/02 07:42:55;;;;;;;8.00;7.05;;;;;;;19.61;48.55;100440.72;4995154;28;20473;-74
2021/04/02 07:45:26;;;;;;;8.65;7.75;;;;;;;18.95;49.66;100450.09;4994802;28;20046;-75
2021/04/02 07:48:12;;;;;;;8.63;7.82;;;;;;;19.35;49.50;100445.75;4996403;28;20030;-73
2021/04/02 07:50:45;;;;;;;10.40;8.63;;;;;;;19.92;48.00;100447.25;4994913;28;20033;-73
2021/04/02 07:53:34;;;;;;;8.30;7.50;;;;;;;20.16;46.39;100448.16;4995346;28;20496;-75
2021/04/02 07:56:06;;;;;;;8.13;7.32;;;;;;;20.70;44.83;100431.31;4975023;28;20072;-73
2021/04/02 07:58:33;;;;;;;7.45;6.78;;;;;;;21.60;43.01;100434.31;4988431;28;20038;-73
2021/04/02 08:01:00;;;;;;;8.73;7.63;;;;;;;21.96;42.83;100448.59;4995028;28;20036;-73
2021/04/02 08:03:33;;;;;;;11.63;8.50;;;;;;;21.63;42.74;100441.16;4995105;28;20041;-73
2021/04/02 08:06:08;;;;;;;10.18;8.95;;;;;;;21.40;43.38;100445.56;4994201;28;20081;-74
2021/04/02 08:08:45;;;;;;;9.13;8.30;;;;;;;21.16;43.82;100429.81;4993650;28;20104;-73
2021/04/02 08:11:20;;;;;;;10.10;8.00;;;;;;;20.77;44.28;100422.72;4994862;28;20421;-74
2021/04/02 08:13:48;;;;;;;9.35;7.57;;;;;;;21.64;43.49;100439.91;4995473;28;20035;-74
2021/04/02 08:16:32;;;;;;;9.52;6.85;;;;;;;22.00;41.96;100442.03;4994100;28;20038;-74
2021/04/02 08:19:03;;;;;;;12.57;7.80;;;;;;;22.28;41.04;100429.38;4994389;28;20121;-73
2021/04/02 08:21:30;;;;;;;6.90;6.38;;;;;;;22.37;40.47;100450.25;4994336;28;20478;-71
2021/04/02 08:23:58;;;;;;;8.88;6.82;;;;;;;22.83;38.97;100458.94;4994951;28;20397;-70
2021/04/02 08:26:31;;;;;;;7.13;6.43;;;;;;;21.49;41.18;100449.91;4993829;28;20466;-71
2021/04/02 08:29:06;;;;;;;7.70;6.47;;;;;;;21.48;40.66;100449.09;4993940;28;20038;-72
2021/04/02 08:31:33;;;;;;;7.55;6.15;;;;;;;22.24;40.13;100446.44;4995082;28;20022;-72
2021/04/02 08:33:59;;;;;;;9.20;5.93;;;;;;;22.26;39.62;100449.63;4993495;28;20030;-74
2021/04/02 08:36:26;;;;;;;7.70;6.32;;;;;;;22.40;40.13;100455.00;4993373;28;20493;-72
2021/04/02 08:38:54;;;;;;;9.70;6.50;;;;;;;22.96;39.03;100449.34;4993550;28;20066;-73
2021/04/02 08:41:29;;;;;;;8.40;6.10;;;;;;;22.86;38.72;100444.69;4993780;28;20429;-74
2021/04/02 08:43:56;;;;;;;7.00;6.28;;;;;;;23.12;38.85;100444.91;4994049;28;20373;-74
2021/04/02 08:46:37;;;;;;;6.28;5.75;;;;;;;24.09;37.10;100446.03;4993609;28;20038;-72
2021/04/02 08:49:04;;;;;;;11.88;10.65;;;;;;;24.76;36.17;100434.69;4993374;28;20053;-73
2021/04/02 08:51:30;;;;;;;7.88;6.07;;;;;;;24.26;36.84;100439.03;4995200;28;20034;-73
2021/04/02 08:53:56;;;;;;;5.90;5.35;;;;;;;25.53;34.73;100444.78;4993173;28;20034;-79
2021/04/02 08:56:23;;;;;;;6.05;5.53;;;;;;;25.78;34.46;100443.13;4993542;28;20048;-72
2021/04/02 08:58:49;;;;;;;7.13;5.30;;;;;;;26.26;33.29;100438.13;4993141;28;20026;-72
2021/04/02 09:01:20;;;;;;;6.57;5.97;;;;;;;26.59;32.74;100445.03;4990855;28;20473;-74
2021/04/02 09:03:46;;;;;;;6.95;6.35;;;;;;;25.50;34.44;100428.59;4994238;28;20382;-75
2021/04/02 09:06:13;;;;;;;7.97;6.20;;;;;;;25.29;34.11;100429.34;4976356;28;20038;-74
2021/04/02 09:08:39;;;;;;;7.82;5.88;;;;;;;24.86;35.34;100430.72;4978663;28;20030;-73
2021/04/02 09:11:09;;;;;;;8.80;6.18;;;;;;;24.50;35.99;100433.88;4976863;28;20034;-74
2021/04/02 09:13:39;;;;;;;7.85;6.70;;;;;;;24.07;36.29;100431.47;4976760;28;20026;-74
2021/04/02 09:16:12;;;;;;;8.07;7.28;;;;;;;23.16;38.55;100426.53;4994464;28;20117;-74
2021/04/02 09:19:05;;;;;;;8.18;6.35;;;;;;;22.77;39.29;100430.31;4993256;28;20473;-73
2021/04/02 09:21:32;;;;;;;5.47;4.97;;;;;;;22.91;39.18;100424.34;4989155;28;20041;-74
2021/04/02 09:23:58;;;;;;;7.35;6.45;;;;;;;22.80;39.88;100426.59;4988640;28;20317;-73
2021/04/02 09:26:24;;;;;;;7.85;6.10;;;;;;;22.42;40.36;100426.22;4982706;28;20034;-74
2021/04/02 09:28:50;;;;;;;6.68;5.35;;;;;;;22.18;40.07;100431.19;4981905;28;20034;-74
2021/04/02 09:31:23;;;;;;;9.88;4.75;;;;;;;22.66;39.25;100419.19;4980626;28;20436;-76
2021/04/02 09:33:53;;;;;;;;;;;;;;;21.64;41.13;100426.56;4993173;28;20041;-77
2021/04/02 09:36:20;;;;;;;6.47;4.25;;;;;;;22.79;39.53;100424.97;4992370;28;19925;-81
2021/04/02 09:38:48;;;;;;;6.10;4.55;;;;;;;23.13;38.45;100418.94;4994558;28;20102;-76
2021/04/02 09:41:20;;;;;;;5.18;4.75;;;;;;;23.12;38.39;100408.81;4993892;28;20110;-83
2021/04/02 09:43:49;;;;;;;4.95;3.92;;;;;;;23.81;37.09;100425.72;4992808;28;20483;-75
2021/04/02 09:46:30;;;;;;;6.35;5.75;;;;;;;23.53;37.97;100419.50;4993517;28;20033;-77
2021/04/02 09:49:06;;;;;;;5.65;4.18;;;;;;;24.17;36.38;100414.09;4992501;28;20032;-77
2021/04/02 09:51:33;;;;;;;4.75;4.10;;;;;;;24.11;36.64;100418.75;4992677;28;20489;-79
2021/04/02 09:53:59;;;;;;;4.60;4.18;;;;;;;23.52;37.54;100409.38;4993923;28;20026;-75
2021/04/02 09:56:25;;;;;;;4.63;3.88;;;;;;;22.83;38.90;100416.38;4993138;28;20089;-76
2021/04/02 09:58:54;;;;;;;6.95;4.38;;;;;;;23.73;38.16;100395.88;4992520;28;20425;-76
2021/04/02 10:01:20;;;;;;;4.70;4.13;;;;;;;23.95;37.63;100396.06;4992831;28;20556;-78
2021/04/02 10:03:46;;;;;;;4.70;4.10;;;;;;;24.23;36.99;100397.28;4992430;28;20029;-83
2021/04/02 10:06:12;;;;;;;5.22;4.72;;;;;;;24.78;35.58;100409.44;4993802;28;20122;-76
2021/04/02 10:08:38;;;;;;;5.45;3.97;;;;;;;23.95;37.38;100401.75;4992652;28;20050;-78
2021/04/02 10:11:03;;;;;;;4.85;4.45;;;;;;;23.89;37.06;100407.19;4992669;28;20509;-76
2021/04/02 10:13:29;;;;;;;4.22;3.83;;;;;;;24.53;36.33;100402.47;4992586;28;20442;-76
2021/04/02 10:15:57;;;;;;;5.00;4.43;;;;;;;24.39;36.68;100391.53;4992475;28;20035;-76
2021/04/02 10:18:23;;;;;;;4.43;3.67;;;;;;;25.49;34.36;100392.03;4992770;28;20041;-76
2021/04/02 10:20:48;;;;;;;5.28;4.07;;;;;;;25.65;33.53;100400.41;4992443;28;20405;-76
2021/04/02 10:23:15;;;;;;;5.13;4.25;;;;;;;25.40;34.35;100389.09;4992642;28;20037;-78
2021/04/02 10:25:42;;;;;;;6.20;5.10;;;;;;;25.74;33.33;100394.81;4993805;28;20026;-78
2021/04/02 10:28:08;;;;;;;7.60;4.05;;;;;;;26.05;33.37;100399.81;4992697;28;20385;-76
2021/04/02 10:30:33;;;;;;;5.47;4.43;;;;;;;26.06;32.57;100390.00;4992853;28;20050;-77
2021/04/02 10:32:59;;;;;;;4.30;3.90;;;;;;;26.58;31.89;100392.06;4994873;28;20425;-75
2021/04/02 10:35:27;;;;;;;9.25;3.90;;;;;;;26.49;32.20;100377.75;4997153;28;20034;-75
2021/04/02 10:37:53;;;;;;;5.45;4.25;;;;;;;26.92;31.80;100378.09;4995571;28;20050;-75
2021/04/02 10:40:19;;;;;;;4.45;3.92;;;;;;;26.31;32.75;100383.31;4995922;28;20026;-75
2021/04/02 10:42:45;;;;;;;4.40;4.00;;;;;;;26.32;32.73;100373.53;4995897;28;20026;-75
2021/04/02 10:45:11;;;;;;;4.32;4.00;;;;;;;25.45;33.96;100372.22;4995588;28;20188;-75
2021/04/02 10:47:36;;;;;;;4.95;4.15;;;;;;;25.70;33.83;100364.84;4996101;28;20034;-75
2021/04/02 10:50:03;;;;;;;5.10;4.05;;;;;;;25.27;34.58;100363.50;4995811;28;20109;-75
2021/04/02 10:52:29;;;;;;;5.75;4.53;;;;;;;26.05;33.51;100365.59;4996940;28;20481;-74
2021/04/02 10:54:54;;;;;;;6.35;4.55;;;;;;;25.98;33.57;100378.06;4996036;28;20073;-75
2021/04/02 10:57:21;;;;;;;5.90;4.38;;;;;;;26.00;33.84;100375.56;4995990;28;20372;-75
2021/04/02 10:59:46;;;;;;;5.05;4.65;;;;;;;26.01;33.70;100357.19;4997199;28;20089;-76
2021/04/02 11:02:12;;;;;;;5.22;4.72;;;;;;;25.70;34.41;100357.09;4995580;28;20454;-75
2021/04/02 11:04:40;;;;;;;4.95;4.55;;;;;;;25.58;35.02;100350.19;4995959;28;20037;-75
2021/04/02 11:07:06;;;;;;;9.63;6.28;;;;;;;24.36;36.79;100361.19;4995587;28;20038;-75
2021/04/02 11:09:32;;;;;;;5.20;4.78;;;;;;;24.64;36.77;100348.09;4996884;28;20030;-76
2021/04/02 11:11:57;;;;;;;5.53;5.03;;;;;;;24.90;36.30;100350.91;4995323;28;20041;-76
2021/04/02 11:14:23;;;;;;;4.93;4.45;;;;;;;24.38;36.99;100350.13;4995153;28;20030;-75
2021/04/02 11:16:48;;;;;;;6.93;4.63;;;;;;;24.15;37.69;100345.53;4995510;28;20089;-75
2021/04/02 11:19:14;;;;;;;4.55;4.15;;;;;;;24.08;37.72;100342.91;4995292;28;20493;-75
2021/04/02 11:21:39;;;;;;;4.72;3.92;;;;;;;24.57;37.11;100334.13;4995776;28;20100;-75